Historique des mesures à Cassis (13260), France
Quotidien Résumé Juillet 24, 2021 Unités:  Métrique    US   Métrique/US
Quotidien Hebdomadaire Mensuel Annuel
  Maximum: Minimum: Moyenne:
Température: 15.8 °C 10.9 °C 13.7 °C
Point de rosée: 8.6 °C 5.3 °C 6.9 °C
Humidité: 85% 53% 64%
Vitesse du vent: 11.5km/h 0km/h 4.6km/h
Rafales: 23km/h - -
Vent- - East
Pression: 1015.1 hPa 1006.8 hPa -
Précipitations: 17.0 mm    
Historical Graphs
 
 
Mesures pour : Juillet 24, 2021
Heure Temperature Point de rosée Pression Vent Vitesse du vent Rafales Humidité Pluie (par heure)
00:10 13.6 °C 7.3 °C 1015.1 hPa ENE 5 km/h 18 km/h 66% 0.0 mm
01:11 13.6 °C 7.3 °C 1014.8 hPa ESE 3.6 km/h 9.7 km/h 66% 0.0 mm
02:10 13.8 °C 7.8 °C 1014.6 hPa NE 2.9 km/h 15.1 km/h 67% 0.0 mm
03:11 13.6 °C 7.3 °C 1014.6 hPa ESE 3.6 km/h 13.3 km/h 66% 0.0 mm
04:10 13.6 °C 6.9 °C 1013.5 hPa ENE 6.5 km/h 14.4 km/h 64% 0.0 mm
05:11 13.8 °C 6.6 °C 1013.7 hPa Calm   23 km/h 62% 0.0 mm
06:10 13.4 °C 5.8 °C 1013.5 hPa East 11.5 km/h 16.2 km/h 60% 0.0 mm
07:11 12.9 °C 5.3 °C 1013.6 hPa ENE 3.6 km/h 20.5 km/h 60% 0.0 mm
08:10 13.3 °C 5.9 °C 1013.5 hPa ESE 1.4 km/h 14.4 km/h 61% 0.0 mm
09:11 13.8 °C 5.4 °C 1013.8 hPa ESE 5 km/h 16.2 km/h 57% 0.0 mm
10:10 14.3 °C 5.9 °C 1014.0 hPa ENE 9.7 km/h 9.7 km/h 57% 0.0 mm
11:11 14.9 °C 6.2 °C 1013.6 hPa East 7.2 km/h 14.8 km/h 56% 0.0 mm
12:10 15.3 °C 6.3 °C 1012.9 hPa East 7.2 km/h 23 km/h 55% 0.0 mm
13:11 15.8 °C 6.2 °C 1011.7 hPa East 6.5 km/h 14.4 km/h 53% 0.0 mm
14:10 15.7 °C 6.7 °C 1010.7 hPa Calm   11.2 km/h 55% 0.0 mm
15:11 15.5 °C 6.5 °C 1009.9 hPa East 5.4 km/h 10.8 km/h 55% 0.0 mm
16:10 14.9 °C 5.9 °C 1009.3 hPa East 1.4 km/h 16.9 km/h 55% 0.0 mm
17:11 13.8 °C 7.1 °C 1009.3 hPa ESE 4.7 km/h 17.3 km/h 64% 0.0 mm
18:10 13.2 °C 7.9 °C 1008.2 hPa East 2.2 km/h 5.8 km/h 70% 0.0 mm
19:11 13.1 °C 7.6 °C 1007.2 hPa ESE 4.7 km/h 19.1 km/h 69% 0.5 mm
20:10 12.2 °C 8.1 °C 1007.9 hPa Calm   9.4 km/h 76% 2.5 mm
21:11 11.4 °C 8.3 °C 1008.2 hPa Calm   4 km/h 81% 6.1 mm
22:10 11.2 °C 8.6 °C 1007.9 hPa ESE 5.8 km/h 6.5 km/h 84% 5.6 mm
23:11 10.9 °C 8.5 °C 1006.8 hPa ESE 11.5 km/h 16.9 km/h 85% 1.5 mm
Observations météo à CASSIS
WU-History script by Weather Underground - 2 mb